Time;durP1;ratioP1;P1;durP2;ratioP2;P2;SDS_P1;SDS_P2;PMS_P1;PMS_P2;Temp;Humidity;BMP_temperature;BMP_pressure;BME280_temperature;BME280_humidity;BME280_pressure;Samples;Min_cycle;Max_cycle;Signal;HPM_P1;HPM_P2
2022/03/04 00:07:03;;;;;;;31.60;19.70;;;;;;;-0.35;68.72;99650.57;432853;1270;141145;-63
2022/03/04 00:17:09;;;;;;;28.40;17.50;;;;;;;-0.45;68.88;99649.89;438953;1270;140759;-64
2022/03/04 00:27:15;;;;;;;32.70;20.60;;;;;;;-0.51;69.09;99651.38;446637;1270;144030;-63
2022/03/04 00:37:21;;;;;;;32.40;21.70;;;;;;;-0.44;69.49;99655.39;447408;1270;144969;-63
2022/03/04 00:47:26;;;;;;;32.10;19.50;;;;;;;-0.23;69.30;99652.44;447054;1272;141812;-63
2022/03/04 00:57:32;;;;;;;30.10;20.70;;;;;;;-0.05;69.28;99648.83;446610;1270;144103;-63
2022/03/04 01:07:38;;;;;;;36.00;20.20;;;;;;;0.02;69.26;99645.43;447297;1270;141221;-63
2022/03/04 01:17:44;;;;;;;33.60;18.20;;;;;;;0.02;69.45;99650.26;447416;1271;142603;-63
2022/03/04 01:27:49;;;;;;;32.00;19.70;;;;;;;-0.03;69.55;99651.55;446517;1270;141638;-63
2022/03/04 01:37:55;;;;;;;32.20;20.30;;;;;;;0.01;70.06;99650.26;447352;1270;142746;-68
2022/03/04 01:48:01;;;;;;;33.40;20.60;;;;;;;0.15;70.10;99651.71;447320;1270;143514;-68
2022/03/04 01:58:07;;;;;;;30.30;20.60;;;;;;;0.23;70.54;99643.29;447121;1271;143969;-68
2022/03/04 02:08:13;;;;;;;28.80;19.40;;;;;;;0.22;70.53;99640.20;447179;1271;142304;-68
2022/03/04 02:18:19;;;;;;;35.60;21.20;;;;;;;0.08;71.07;99639.96;446119;1271;142472;-68
2022/03/04 02:28:25;;;;;;;38.10;23.10;;;;;;;-0.10;71.75;99639.10;447378;1270;141776;-68
2022/03/04 02:38:31;;;;;;;38.30;25.00;;;;;;;-0.06;72.22;99649.35;447170;1270;168822;-69
2022/03/04 02:48:38;;;;;;;31.90;21.00;;;;;;;0.14;72.20;99658.80;442755;1271;141542;-68
2022/03/04 02:58:44;;;;;;;36.90;21.90;;;;;;;0.28;72.36;99660.23;447349;1270;142245;-69
2022/03/04 03:08:50;;;;;;;38.40;22.60;;;;;;;0.34;72.32;99658.21;443726;1270;143256;-67
2022/03/04 03:18:56;;;;;;;30.20;20.50;;;;;;;0.41;72.37;99656.52;430401;1271;140982;-70
2022/03/04 03:29:02;;;;;;;30.00;19.50;;;;;;;0.34;72.46;99652.52;443629;1271;141995;-69
2022/03/04 03:39:08;;;;;;;31.50;21.10;;;;;;;0.26;72.47;99653.04;446167;1273;146074;-68
2022/03/04 03:49:14;;;;;;;32.90;21.30;;;;;;;0.10;72.99;99658.68;446869;1272;141934;-69
2022/03/04 03:59:20;;;;;;;31.30;21.40;;;;;;;0.10;73.38;99658.00;447271;1270;143302;-68
2022/03/04 04:09:26;;;;;;;32.40;20.50;;;;;;;0.25;73.30;99659.07;446596;1270;165373;-68
2022/03/04 04:19:32;;;;;;;31.00;21.20;;;;;;;0.39;73.70;99658.80;447355;1270;141361;-68
2022/03/04 04:29:38;;;;;;;28.70;17.60;;;;;;;0.39;73.80;99662.42;430475;1271;143087;-67
2022/03/04 04:39:44;;;;;;;24.70;17.20;;;;;;;0.23;74.17;99662.90;430644;1270;141916;-68
2022/03/04 04:49:50;;;;;;;22.20;15.80;;;;;;;0.03;74.46;99666.92;447408;1270;141553;-69
2022/03/04 04:59:56;;;;;;;30.30;20.50;;;;;;;0.03;74.82;99672.09;431227;1271;141592;-68
2022/03/04 05:10:02;;;;;;;31.90;20.70;;;;;;;0.09;75.13;99666.11;431184;1271;141976;-68
2022/03/04 05:20:09;;;;;;;29.60;18.40;;;;;;;0.04;75.27;99674.98;446629;1271;141314;-70
2022/03/04 05:30:15;;;;;;;;;;;;;;;-0.04;75.35;99675.67;443815;1271;141532;-68
2022/03/04 05:40:21;;;;;;;33.10;18.70;;;;;;;0.00;75.95;99688.31;447691;1270;129757;-69
2022/03/04 05:50:27;;;;;;;33.70;20.30;;;;;;;0.06;75.89;99701.96;444528;1271;141405;-69
2022/03/04 06:00:33;;;;;;;30.10;20.80;;;;;;;0.17;76.21;99708.84;446671;1270;142486;-69
2022/03/04 06:10:44;;;;;;;28.50;18.90;;;;;;;0.24;75.94;99716.45;445074;1270;144136;-68
2022/03/04 06:20:50;;;;;;;32.70;18.60;;;;;;;0.37;76.03;99715.67;447084;1271;142001;-68
2022/03/04 06:30:56;;;;;;;33.00;17.80;;;;;;;0.51;75.58;99727.62;446618;1271;201552;-68
2022/03/04 06:41:02;;;;;;;23.40;16.40;;;;;;;0.61;75.62;99743.95;447492;1271;143048;-69
2022/03/04 06:51:08;;;;;;;25.00;16.70;;;;;;;0.65;75.57;99753.69;436963;1271;141608;-68
2022/03/04 07:01:14;;;;;;;24.60;16.30;;;;;;;0.66;75.51;99761.26;443314;1271;144258;-68
2022/03/04 07:11:20;;;;;;;23.20;16.30;;;;;;;0.68;75.48;99762.24;443053;1272;142430;-68
2022/03/04 07:21:25;;;;;;;25.20;15.70;;;;;;;0.64;75.43;99773.36;430164;1271;142491;-68
2022/03/04 07:31:35;;;;;;;18.20;12.70;;;;;;;0.83;75.41;99775.39;446758;1273;142276;-69
2022/03/04 07:41:41;;;;;;;21.90;12.90;;;;;;;1.13;75.28;99783.55;447036;1271;143427;-65
2022/03/04 07:51:47;;;;;;;15.60;12.10;;;;;;;1.38;74.54;99795.23;446382;1271;142323;-69
2022/03/04 08:01:52;;;;;;;19.40;13.60;;;;;;;1.57;74.17;99805.69;446538;1271;142432;-66
2022/03/04 08:24:58;;;;;;;19.60;14.70;;;;;;;2.74;73.34;99811.27;423047;1310;601371;-70
2022/03/04 08:35:04;;;;;;;20.90;13.90;;;;;;;4.12;70.98;99812.30;439306;1273;225077;-66
2022/03/04 08:45:11;;;;;;;13.20;11.30;;;;;;;5.95;70.09;99815.67;445174;1273;141121;-64
2022/03/04 08:55:23;;;;;;;12.50;10.40;;;;;;;9.63;63.35;99824.27;446085;1275;141743;-68
2022/03/04 09:05:30;;;;;;;12.40;11.20;;;;;;;6.55;62.30;99839.58;446000;1275;141299;-71
2022/03/04 09:15:36;;;;;;;9.40;8.40;;;;;;;4.50;63.36;99845.83;445683;1275;142022;-69
2022/03/04 09:25:42;;;;;;;9.40;8.50;;;;;;;3.94;64.51;99840.43;446394;1274;140520;-68
2022/03/04 09:35:51;;;;;;;10.50;9.40;;;;;;;4.60;65.02;99851.02;444305;1276;140701;-70
2022/03/04 09:45:57;;;;;;;11.00;9.90;;;;;;;6.69;63.27;99851.08;429884;1276;142202;-68
2022/03/04 09:56:03;;;;;;;11.30;9.70;;;;;;;6.35;61.38;99851.66;446814;1272;140885;-67
2022/03/04 10:06:10;;;;;;;9.70;8.60;;;;;;;5.33;62.08;99859.86;431671;1273;140267;-74
2022/03/04 10:16:22;;;;;;;10.50;9.00;;;;;;;4.98;62.62;99859.95;446790;1272;140251;-69
2022/03/04 10:26:31;;;;;;;11.70;9.40;;;;;;;4.65;62.46;99857.11;446780;1271;139798;-68
2022/03/04 10:36:36;;;;;;;9.80;7.50;;;;;;;4.53;63.22;99863.76;445955;1273;140424;-63
2022/03/04 10:46:56;;;;;;;8.80;7.50;;;;;;;4.86;63.24;99853.10;442993;1271;140703;-66
2022/03/04 10:57:05;;;;;;;9.50;8.10;;;;;;;5.13;62.57;99854.20;447092;1272;140130;-66
2022/03/04 11:07:13;;;;;;;9.00;8.00;;;;;;;5.33;62.30;99850.84;447021;1271;142413;-67
2022/03/04 11:17:19;;;;;;;10.40;8.10;;;;;;;5.05;62.38;99853.28;444434;1271;141259;-70
2022/03/04 11:27:29;;;;;;;7.50;6.70;;;;;;;4.81;62.36;99852.40;446026;1271;140369;-62
2022/03/04 11:37:35;;;;;;;10.50;6.20;;;;;;;4.37;62.61;99849.77;445372;1272;139796;-63
2022/03/04 11:47:44;;;;;;;8.70;7.20;;;;;;;4.19;62.93;99847.60;447014;1271;140555;-64
2022/03/04 11:57:59;;;;;;;18.60;10.00;;;;;;;4.05;63.28;99853.95;446040;1271;140419;-68
2022/03/04 12:08:15;;;;;;;13.40;10.00;;;;;;;3.75;63.87;99860.26;446343;1272;141220;-65
2022/03/04 12:18:27;;;;;;;23.00;16.00;;;;;;;3.30;64.66;99868.88;446330;1272;140783;-66
2022/03/04 12:28:40;;;;;;;20.30;14.70;;;;;;;3.04;65.23;99870.50;446873;1272;140957;-64
2022/03/04 12:38:48;;;;;;;28.50;16.70;;;;;;;3.24;65.52;99861.81;446714;1272;141634;-66
2022/03/04 12:48:53;;;;;;;;;;;;;;;3.37;65.41;99861.95;446383;1272;140983;-72
2022/03/04 12:59:01;;;;;;;21.10;16.10;;;;;;;3.58;65.72;99865.61;447208;1272;127494;-60
2022/03/04 13:09:09;;;;;;;21.70;17.50;;;;;;;3.73;64.95;99866.04;446178;1272;141655;-64
2022/03/04 13:19:17;;;;;;;22.50;17.70;;;;;;;3.48;64.66;99865.08;446708;1273;141124;-71
2022/03/04 13:29:24;;;;;;;19.20;14.70;;;;;;;3.31;65.04;99870.59;446788;1272;141603;-66
2022/03/04 13:39:32;;;;;;;25.60;17.40;;;;;;;3.31;65.20;99868.19;443319;1271;141795;-60
2022/03/04 13:49:49;;;;;;;21.00;16.30;;;;;;;3.48;65.23;99868.18;441709;1272;141533;-59
2022/03/04 13:59:59;;;;;;;25.80;15.70;;;;;;;3.25;64.79;99864.69;432370;1272;142065;-62
2022/03/04 14:10:12;;;;;;;13.00;10.40;;;;;;;2.77;65.09;99868.82;439900;1273;140628;-61
2022/03/04 14:20:18;;;;;;;18.70;13.70;;;;;;;2.69;65.38;99869.38;439713;1273;140952;-63
2022/03/04 14:30:27;;;;;;;19.10;14.00;;;;;;;2.89;65.20;99877.12;441985;1272;142037;-63
2022/03/04 14:40:34;;;;;;;20.70;15.20;;;;;;;2.76;65.13;99871.45;447153;1272;141073;-71
2022/03/04 14:50:40;;;;;;;22.20;13.80;;;;;;;2.51;65.64;99867.60;447007;1272;141312;-63
2022/03/04 15:00:46;;;;;;;25.10;18.20;;;;;;;2.88;65.68;99868.34;446354;1272;141933;-65
2022/03/04 15:10:53;;;;;;;21.90;15.30;;;;;;;3.32;65.44;99878.02;446931;1272;141375;-69
2022/03/04 15:20:59;;;;;;;21.60;15.00;;;;;;;3.47;64.81;99881.54;436015;1273;141275;-65
2022/03/04 15:31:05;;;;;;;17.90;14.10;;;;;;;3.19;65.02;99889.27;441437;1273;141460;-67
2022/03/04 15:41:11;;;;;;;25.50;17.00;;;;;;;3.01;65.37;99889.27;446750;1272;140888;-72
2022/03/04 15:51:18;;;;;;;15.70;11.90;;;;;;;2.91;65.83;99891.95;442825;1271;141167;-64
2022/03/04 16:01:24;;;;;;;18.40;14.30;;;;;;;2.68;65.79;99903.81;446586;1274;139941;-71
2022/03/04 16:11:32;;;;;;;24.30;16.70;;;;;;;2.54;66.44;99911.61;443747;1272;141389;-60
2022/03/04 16:21:39;;;;;;;20.10;15.40;;;;;;;2.46;66.80;99913.36;445875;1271;141353;-60
2022/03/04 16:31:46;;;;;;;21.50;15.00;;;;;;;2.32;67.11;99921.65;439679;1272;140742;-59
2022/03/04 16:41:52;;;;;;;22.60;15.70;;;;;;;2.13;67.20;99931.59;446649;1272;195430;-67
2022/03/04 16:51:59;;;;;;;22.70;15.50;;;;;;;2.07;67.65;99934.69;445999;1271;142049;-63
2022/03/04 17:02:14;;;;;;;24.90;17.00;;;;;;;2.09;67.75;99942.91;437832;1272;140668;-63
2022/03/04 17:12:20;;;;;;;35.20;20.50;;;;;;;2.04;67.54;99944.42;434492;1273;142941;-73
2022/03/04 17:22:27;;;;;;;33.00;21.60;;;;;;;1.90;67.83;99943.53;433950;1272;141509;-67
2022/03/04 17:32:34;;;;;;;25.10;15.70;;;;;;;1.79;68.14;99949.98;446959;1271;141747;-63
2022/03/04 17:42:40;;;;;;;25.80;16.80;;;;;;;1.85;68.12;99955.71;446268;1271;141176;-67
2022/03/04 17:52:46;;;;;;;30.30;18.50;;;;;;;1.85;67.90;99966.25;446917;1271;141386;-59
2022/03/04 18:02:51;;;;;;;29.20;20.30;;;;;;;1.80;67.89;99967.04;446857;1273;146587;-57
2022/03/04 18:12:58;;;;;;;33.80;19.80;;;;;;;1.83;67.95;99967.14;440839;1273;141495;-58
2022/03/04 18:23:04;;;;;;;19.90;14.60;;;;;;;1.86;67.99;99968.14;446732;1273;141913;-58
2022/03/04 18:33:09;;;;;;;34.50;21.50;;;;;;;1.82;68.15;99963.04;445785;1274;144481;-58
2022/03/04 18:43:15;;;;;;;23.90;15.10;;;;;;;1.77;68.32;99962.44;441948;1272;140815;-58
2022/03/04 18:53:21;;;;;;;42.90;28.60;;;;;;;1.85;68.52;99966.08;446821;1272;141869;-57
2022/03/04 19:03:28;;;;;;;28.60;18.60;;;;;;;1.92;68.65;99975.42;446042;1272;144157;-58
2022/03/04 19:13:34;;;;;;;17.80;11.60;;;;;;;1.73;69.20;99973.05;446842;1272;141559;-64
2022/03/04 19:23:41;;;;;;;17.50;10.50;;;;;;;1.54;69.49;99972.25;433189;1273;139931;-57
2022/03/04 19:33:52;;;;;;;13.00;10.40;;;;;;;1.39;70.11;99983.60;440498;1273;140965;-58
2022/03/04 19:44:01;;;;;;;18.90;12.60;;;;;;;1.37;70.42;99984.67;447056;1272;141078;-57
2022/03/04 19:54:07;;;;;;;14.20;10.30;;;;;;;1.28;70.58;99997.44;436139;1271;142221;-58
2022/03/04 20:04:13;;;;;;;11.50;8.50;;;;;;;1.06;70.72;100001.28;437369;1272;141793;-59
2022/03/04 20:14:19;;;;;;;11.10;8.00;;;;;;;1.03;70.28;100002.55;446920;1272;141599;-58
2022/03/04 20:24:26;;;;;;;12.90;10.00;;;;;;;1.07;69.99;100004.89;446026;1273;142042;-58
2022/03/04 20:34:32;;;;;;;8.60;6.50;;;;;;;1.04;69.71;99995.80;446626;1273;266267;-58
2022/03/04 20:44:38;;;;;;;7.50;5.40;;;;;;;0.86;69.31;99995.60;447004;1272;140971;-58
2022/03/04 20:54:45;;;;;;;7.40;5.50;;;;;;;0.69;69.31;100014.50;445931;1273;141303;-58
2022/03/04 21:04:50;;;;;;;9.50;6.50;;;;;;;0.64;69.33;100014.42;446583;1273;144027;-58
2022/03/04 21:14:56;;;;;;;8.50;6.00;;;;;;;0.59;69.04;100025.52;443418;1273;141496;-60
2022/03/04 21:25:02;;;;;;;7.90;5.00;;;;;;;0.48;68.58;100024.31;445872;1271;141274;-60
2022/03/04 21:35:10;;;;;;;10.60;8.90;;;;;;;0.34;68.23;100024.34;434056;1273;140932;-59
2022/03/04 21:45:16;;;;;;;10.60;7.10;;;;;;;0.28;68.25;100026.83;446351;1271;142317;-59
2022/03/04 21:55:22;;;;;;;15.50;8.60;;;;;;;0.30;68.02;100025.95;446988;1271;144149;-58
2022/03/04 22:05:28;;;;;;;15.00;8.70;;;;;;;0.27;67.76;100031.69;446987;1272;141723;-58
2022/03/04 22:15:34;;;;;;;9.30;5.50;;;;;;;0.12;67.56;100031.20;432454;1273;141045;-61
2022/03/04 22:25:40;;;;;;;10.00;6.30;;;;;;;-0.07;67.72;100038.50;432336;1272;140933;-58
2022/03/04 22:35:46;;;;;;;16.20;8.60;;;;;;;-0.22;68.17;100033.03;444760;1271;141268;-59
2022/03/04 22:45:52;;;;;;;16.10;8.70;;;;;;;-0.26;68.21;100035.16;430694;1273;140523;-58
2022/03/04 22:55:58;;;;;;;15.30;7.70;;;;;;;-0.22;68.81;100040.23;430100;1272;141279;-59
2022/03/04 23:16:31;;;;;;;14.80;10.20;;;;;;;-0.33;69.35;100030.91;443587;1271;142989;-59
2022/03/04 23:26:37;;;;;;;18.60;10.80;;;;;;;-0.47;69.42;100038.66;447186;1272;145029;-58
2022/03/04 23:36:43;;;;;;;14.50;9.20;;;;;;;-0.63;69.72;100036.59;446133;1272;141132;-59
2022/03/04 23:46:49;;;;;;;19.20;11.10;;;;;;;-0.81;70.04;100035.91;446586;1273;141015;-58
2022/03/04 23:56:55;;;;;;;15.80;9.50;;;;;;;-0.91;70.32;100031.38;446878;1272;142781;-59
